TimePDT,TemperatureF,Dew PointF,Humidity,Sea Level PressureIn,VisibilityMPH,Wind Direction,Wind SpeedMPH,Gust SpeedMPH,PrecipitationIn,Events,Conditions,WindDirDegrees,DateUTC
12:54 AM,64.9,37.0,36,29.95,10.0,Calm,Calm,-,N/A,,Clear,0,2013-04-22 07:54:00
1:54 AM,68.0,37.0,32,29.93,10.0,East,5.8,-,N/A,,Clear,100,2013-04-22 08:54:00
2:54 AM,64.0,37.0,37,29.92,10.0,SE,3.5,-,N/A,,Clear,130,2013-04-22 09:54:00
3:54 AM,66.0,37.0,34,29.91,10.0,Calm,Calm,-,N/A,,Clear,0,2013-04-22 10:54:00
4:54 AM,57.9,37.9,47,29.91,10.0,Calm,Calm,-,N/A,,Clear,0,2013-04-22 11:54:00
5:54 AM,60.1,39.0,46,29.91,10.0,Calm,Calm,-,N/A,,Clear,0,2013-04-22 12:54:00
6:54 AM,64.0,37.0,37,29.93,10.0,East,4.6,-,N/A,,Clear,100,2013-04-22 13:54:00
7:54 AM,69.1,35.1,29,29.93,10.0,ESE,5.8,-,N/A,,Clear,120,2013-04-22 14:54:00
8:54 AM,72.0,34.0,25,29.94,10.0,SSE,3.5,-,N/A,,Clear,150,2013-04-22 15:54:00
9:54 AM,75.9,35.1,23,29.94,10.0,Variable,3.5,-,N/A,,Clear,0,2013-04-22 16:54:00
10:54 AM,79.0,37.0,22,29.94,10.0,Calm,Calm,-,N/A,,Clear,0,2013-04-22 17:54:00
11:54 AM,82.0,39.9,22,29.91,10.0,West,8.1,-,N/A,,Clear,280,2013-04-22 18:54:00
12:54 PM,84.9,34.0,16,29.88,10.0,WNW,10.4,-,N/A,,Clear,290,2013-04-22 19:54:00
1:54 PM,86.0,35.1,16,29.86,10.0,WNW,9.2,-,N/A,,Clear,290,2013-04-22 20:54:00
2:54 PM,89.1,37.0,16,29.84,10.0,WNW,9.2,18.4,N/A,,Clear,290,2013-04-22 21:54:00
3:54 PM,89.1,34.0,14,29.81,10.0,NNW,10.4,18.4,N/A,,Clear,330,2013-04-22 22:54:00
4:54 PM,89.1,33.1,14,29.79,10.0,NW,12.7,-,N/A,,Clear,310,2013-04-22 23:54:00
5:54 PM,88.0,34.0,15,29.78,10.0,NW,10.4,-,N/A,,Clear,310,2013-04-23 00:54:00
6:54 PM,86.0,36.0,17,29.78,10.0,WNW,9.2,-,N/A,,Clear,300,2013-04-23 01:54:00
7:54 PM,78.1,41.0,27,29.79,10.0,North,5.8,-,N/A,,Clear,350,2013-04-23 02:54:00
8:54 PM,77.0,37.0,24,29.81,10.0,North,8.1,-,N/A,,Clear,10,2013-04-23 03:54:00
9:54 PM,75.0,39.0,27,29.81,10.0,North,8.1,-,N/A,,Clear,10,2013-04-23 04:54:00
10:54 PM,68.0,37.9,33,29.82,10.0,North,3.5,-,N/A,,Clear,10,2013-04-23 05:54:00
11:54 PM,66.9,41.0,39,29.83,10.0,WNW,3.5,-,N/A,,Clear,300,2013-04-23 06:54:00